Time;durP1;ratioP1;P1;durP2;ratioP2;P2;SDS_P1;SDS_P2;PMS_P1;PMS_P2;Temp;Humidity;BMP_temperature;BMP_pressure;BME280_temperature;BME280_humidity;BME280_pressure;Samples;Min_cycle;Max_cycle;Signal;HPM_P1;HPM_P2
2022/04/29 04:21:27;;;;;;;8.43;6.23;;;;;;;10.00;81.92;101344.19;6731168;26;167853;-88
2022/04/29 04:24:31;;;;;;;7.80;5.93;;;;;;;10.00;81.92;101344.19;6713624;26;34360;-89
2022/04/29 04:27:59;;;;;;;7.45;5.82;;;;;;;9.50;82.02;101353.62;6706165;26;34550;-89
2022/04/29 04:31:03;;;;;;;9.27;5.78;;;;;;;9.49;81.63;101346.56;6621918;26;32435;-89
2022/04/29 04:37:30;;;;;;;6.87;5.70;;;;;;;9.49;79.71;101355.41;6694998;26;33956;-89
2022/04/29 04:40:33;;;;;;;11.73;6.32;;;;;;;9.57;77.91;101355.19;6690734;26;33287;-89
2022/04/29 04:43:36;;;;;;;8.20;6.07;;;;;;;9.52;77.53;101365.94;6679401;26;32483;-89
2022/04/29 04:46:42;;;;;;;6.95;5.50;;;;;;;9.67;77.93;101363.72;6701071;26;34089;-89
2022/04/29 04:49:45;;;;;;;8.55;5.90;;;;;;;9.71;77.31;101368.87;6698588;26;33943;-89
2022/04/29 04:52:49;;;;;;;8.02;5.87;;;;;;;9.68;76.66;101368.09;6698575;26;35069;-89
2022/04/29 04:55:53;;;;;;;10.18;6.03;;;;;;;9.67;76.04;101371.66;6680110;26;32484;-89
2022/04/29 04:58:55;;;;;;;6.45;5.62;;;;;;;9.80;75.01;101372.16;6698301;26;34050;-89
2022/04/29 05:01:58;;;;;;;8.23;6.05;;;;;;;9.97;71.90;101380.44;6693067;26;33845;-89
2022/04/29 05:05:05;;;;;;;9.82;5.70;;;;;;;10.19;71.61;101373.59;6678694;26;32249;-89
2022/04/29 05:11:48;;;;;;;6.75;5.68;;;;;;;10.50;70.45;101369.97;6692176;26;20052;-89
2022/04/29 05:15:08;;;;;;;9.27;6.37;;;;;;;10.90;71.27;101370.41;6691122;26;34188;-89
2022/04/29 05:18:11;;;;;;;9.57;5.75;;;;;;;11.00;71.23;101374.47;6692327;26;33996;-89
2022/04/29 05:21:15;;;;;;;9.40;5.78;;;;;;;11.91;69.68;101382.63;6665965;26;33056;-90
2022/04/29 05:24:17;;;;;;;10.48;5.65;;;;;;;13.80;62.85;101380.88;6655830;26;32817;-89
2022/04/29 05:27:31;;;;;;;8.60;5.85;;;;;;;15.05;58.31;101377.44;6663344;26;33509;-89
2022/04/29 05:30:38;;;;;;;9.35;5.75;;;;;;;14.87;54.83;101371.22;6661161;26;33072;-89
2022/04/29 05:33:42;;;;;;;11.77;5.90;;;;;;;15.69;54.38;101388.25;6662373;26;33915;-89
2022/04/29 05:36:47;;;;;;;6.30;5.32;;;;;;;15.99;52.56;101384.00;6662886;26;33283;-89
2022/04/29 05:43:13;;;;;;;7.12;5.85;;;;;;;16.62;48.57;101379.47;6663198;26;34038;-89
2022/04/29 05:46:16;;;;;;;8.40;6.10;;;;;;;16.91;49.15;101378.69;6661735;26;32617;-89
2022/04/29 05:49:18;;;;;;;7.90;5.82;;;;;;;16.60;50.63;101377.84;6662505;26;33826;-89
2022/04/29 05:52:21;;;;;;;8.38;5.40;;;;;;;16.87;48.14;101375.31;6663401;26;34331;-89
2022/04/29 05:55:24;;;;;;;8.00;5.80;;;;;;;17.39;46.67;101370.41;6661033;26;33172;-89
2022/04/29 05:58:47;;;;;;;7.32;5.70;;;;;;;16.35;47.47;101380.13;6662799;26;34265;-89
2022/04/29 06:01:51;;;;;;;6.87;5.87;;;;;;;16.53;48.28;101380.00;6663031;26;33971;-89
2022/04/29 06:04:55;;;;;;;7.00;5.70;;;;;;;17.33;44.84;101382.37;6662784;26;33661;-88
2022/04/29 06:07:58;;;;;;;7.18;5.68;;;;;;;18.00;43.21;101396.09;6662399;26;33844;-88
2022/04/29 06:11:01;;;;;;;6.43;5.55;;;;;;;18.44;41.22;101395.00;6661370;26;34811;-88
2022/04/29 06:14:05;;;;;;;5.30;4.80;;;;;;;19.42;38.55;101386.63;6662181;26;32583;-89
2022/04/29 06:17:09;;;;;;;5.50;4.90;;;;;;;20.13;36.94;101388.72;6664654;26;33191;-88
2022/04/29 06:20:16;;;;;;;7.82;4.90;;;;;;;22.40;31.99;101384.50;6663166;26;32279;-88
2022/04/29 06:23:22;;;;;;;6.25;4.90;;;;;;;24.18;30.46;101391.66;6678979;26;33917;-88
2022/04/29 06:26:29;;;;;;;7.18;5.32;;;;;;;24.69;28.27;101393.37;6673068;26;32416;-89
2022/04/29 06:29:31;;;;;;;8.05;4.80;;;;;;;24.26;29.29;101392.81;6674975;26;32523;-88
2022/04/29 06:32:35;;;;;;;5.62;4.70;;;;;;;23.06;30.61;101381.69;6673359;26;32395;-89
2022/04/29 06:35:42;;;;;;;6.30;4.55;;;;;;;22.06;32.42;101395.41;6695347;26;34041;-88
2022/04/29 06:38:45;;;;;;;5.90;4.72;;;;;;;22.00;31.89;101390.53;6690675;26;34863;-89
2022/04/29 06:41:58;;;;;;;5.35;4.55;;;;;;;21.67;32.55;101387.72;6691653;26;33751;-89
2022/04/29 06:45:02;;;;;;;7.53;4.85;;;;;;;22.72;30.51;101391.75;6673698;26;33524;-88
2022/04/29 06:48:08;;;;;;;6.15;4.30;;;;;;;22.78;28.94;101384.09;6690151;26;34200;-92
2022/04/29 06:51:14;;;;;;;6.97;4.22;;;;;;;22.88;29.80;101391.28;6669854;26;32439;-92
2022/04/29 06:54:19;;;;;;;6.00;4.28;;;;;;;23.76;28.34;101381.88;6669383;26;33198;-88
2022/04/29 06:57:23;;;;;;;4.90;4.20;;;;;;;21.92;31.17;101388.44;6669225;26;34328;-88
2022/04/29 07:00:26;;;;;;;5.65;4.32;;;;;;;22.51;28.62;101386.28;6669513;26;32530;-87
2022/04/29 07:03:29;;;;;;;6.82;4.55;;;;;;;21.86;29.15;101397.94;6691721;26;33903;-87
2022/04/29 07:06:33;;;;;;;8.85;4.20;;;;;;;21.72;29.85;101392.81;6672647;26;32503;-86
2022/04/29 07:09:39;;;;;;;6.87;4.32;;;;;;;22.24;29.47;101392.19;6695650;26;34086;-86
2022/04/29 07:13:05;;;;;;;4.72;4.07;;;;;;;21.47;30.42;101390.19;6684614;26;33784;-85
2022/04/29 07:16:09;;;;;;;6.15;4.30;;;;;;;21.23;30.31;101393.88;6700109;26;34443;-86
2022/04/29 07:19:14;;;;;;;6.30;4.80;;;;;;;21.51;30.29;101388.09;6694284;26;32533;-88
2022/04/29 07:22:17;;;;;;;5.43;3.90;;;;;;;22.79;29.29;101383.97;6692481;26;33721;-87
2022/04/29 07:25:20;;;;;;;7.20;4.32;;;;;;;22.41;29.53;101388.03;6686605;26;33072;-85
2022/04/29 07:28:22;;;;;;;5.07;3.97;;;;;;;22.32;30.63;101382.44;6684839;26;33695;-86
2022/04/29 07:31:25;;;;;;;4.95;3.83;;;;;;;21.03;32.62;101381.97;6695639;26;34723;-85
2022/04/29 07:44:37;;;;;;;6.70;4.00;;;;;;;21.71;32.56;101381.12;6693743;26;34109;-85
2022/04/29 07:47:41;;;;;;;6.55;4.40;;;;;;;21.58;30.29;101385.78;6694434;26;34054;-86
2022/04/29 07:50:46;;;;;;;5.53;3.80;;;;;;;21.41;31.48;101375.38;6677999;26;32678;-87
2022/04/29 07:53:49;;;;;;;7.20;3.97;;;;;;;22.42;30.74;101376.28;6696839;26;34257;-88
2022/04/29 07:56:53;;;;;;;5.70;4.22;;;;;;;21.97;29.90;101382.69;6695725;26;33806;-89
2022/04/29 07:59:55;;;;;;;6.78;4.40;;;;;;;22.85;28.09;101375.31;6674245;26;34358;-90
2022/04/29 08:03:01;;;;;;;4.25;3.85;;;;;;;23.37;28.19;101379.00;6671236;26;33053;-90
2022/04/29 08:06:07;;;;;;;6.85;4.12;;;;;;;23.35;28.25;101372.91;6692973;26;35098;-86
2022/04/29 08:09:09;;;;;;;5.37;4.43;;;;;;;22.70;29.42;101369.41;6674071;26;33114;-88
2022/04/29 08:12:13;;;;;;;5.03;3.83;;;;;;;23.10;29.76;101378.59;6690551;26;35306;-88
2022/04/29 08:15:19;;;;;;;8.80;3.85;;;;;;;23.41;26.53;101372.34;6668794;26;32693;-88
2022/04/29 08:18:23;;;;;;;5.07;3.72;;;;;;;23.50;27.67;101373.38;6669907;26;33918;-88
2022/04/29 08:21:26;;;;;;;6.07;3.92;;;;;;;23.91;27.64;101366.06;6668822;26;33758;-87
2022/04/29 08:24:29;;;;;;;9.75;4.05;;;;;;;24.07;28.16;101370.97;6689532;26;34705;-87
2022/04/29 08:27:31;;;;;;;8.25;4.03;;;;;;;23.89;28.11;101373.47;6669222;26;34029;-88
2022/04/29 08:30:35;;;;;;;4.62;3.83;;;;;;;24.62;25.34;101360.53;6669948;26;32762;-89
2022/04/29 08:33:38;;;;;;;5.03;3.65;;;;;;;24.81;26.08;101361.53;6669867;26;32595;-89
2022/04/29 08:36:42;;;;;;;4.78;3.90;;;;;;;25.14;25.11;101364.75;6666072;26;32781;-89
2022/04/29 08:39:45;;;;;;;4.68;3.78;;;;;;;25.15;24.58;101359.13;6690269;26;33599;-89
2022/04/29 08:42:48;;;;;;;4.85;3.80;;;;;;;25.47;24.26;101354.28;6671016;26;33311;-89
2022/04/29 08:45:51;;;;;;;4.25;3.78;;;;;;;25.02;25.76;101347.75;6689808;26;34711;-89
2022/04/29 08:49:02;;;;;;;4.75;3.75;;;;;;;25.08;23.55;101349.03;6691442;26;32703;-88
2022/04/29 08:52:05;;;;;;;4.57;3.87;;;;;;;25.14;25.06;101345.75;6669397;26;32912;-89
2022/04/29 08:58:36;;;;;;;4.68;3.90;;;;;;;25.03;25.35;101339.47;6672537;26;32306;-90
2022/04/29 09:05:17;;;;;;;5.00;3.78;;;;;;;24.11;24.65;101341.72;6695275;26;20047;-90
2022/04/29 09:08:22;;;;;;;4.53;3.70;;;;;;;24.15;25.28;101326.91;6657953;26;33881;-89
2022/04/29 09:11:26;;;;;;;6.55;4.00;;;;;;;24.82;24.08;101327.97;6663003;26;33832;-89
2022/04/29 09:14:29;;;;;;;5.35;3.90;;;;;;;25.25;23.93;101328.41;6663131;26;32338;-91
2022/04/29 09:25:03;;;;;;;5.62;3.72;;;;;;;26.16;21.59;101309.50;6685945;26;20070;-90
2022/04/29 09:35:57;;;;;;;5.97;3.70;;;;;;;21.77;28.42;101315.81;6685479;26;20074;-92
2022/04/29 09:42:42;;;;;;;9.38;3.50;;;;;;;22.48;25.46;101310.88;6667679;26;32420;-89
2022/04/29 09:46:07;;;;;;;4.50;3.25;;;;;;;23.25;26.03;101308.72;6691050;26;34054;-89
2022/04/29 09:49:10;;;;;;;4.00;3.60;;;;;;;23.14;24.89;101311.53;6690904;26;33524;-88
2022/04/29 09:52:18;;;;;;;5.80;3.90;;;;;;;23.19;25.53;101306.56;6670663;26;32850;-89
2022/04/29 09:55:20;;;;;;;3.90;3.60;;;;;;;22.39;26.54;101303.53;6674253;26;32455;-88
2022/04/29 09:58:23;;;;;;;4.65;3.55;;;;;;;22.20;27.08;101302.41;6695470;26;34579;-87
2022/04/29 10:01:28;;;;;;;3.87;3.42;;;;;;;23.97;23.84;101302.31;6691729;26;34873;-88
2022/04/29 10:04:35;;;;;;;6.87;3.80;;;;;;;21.96;25.52;101299.94;6694152;26;34266;-88
2022/04/29 10:07:40;;;;;;;7.28;3.95;;;;;;;21.69;27.92;101293.97;6677602;26;32594;-88
2022/04/29 10:10:44;;;;;;;4.53;3.55;;;;;;;22.21;24.72;101288.78;6705918;26;34289;-87
2022/04/29 10:13:47;;;;;;;5.07;4.05;;;;;;;21.09;28.23;101294.31;6690779;26;34453;-87
2022/04/29 10:21:15;;;;;;;6.62;3.65;;;;;;;21.78;27.43;101290.53;6690993;26;33994;-87
2022/04/29 10:23:59;;;;;;;5.37;3.37;;;;;;;24.15;24.09;101290.81;6608299;26;32922;-87
2022/04/29 10:27:01;;;;;;;3.75;3.45;;;;;;;25.38;21.35;101279.16;6703285;26;34210;-87
2022/04/29 10:30:06;;;;;;;3.78;3.40;;;;;;;23.95;22.82;101279.94;6690243;26;34261;-85
2022/04/29 10:33:22;;;;;;;4.45;3.25;;;;;;;24.72;22.11;101271.00;6700349;26;34264;-85
2022/04/29 10:36:26;;;;;;;4.97;3.80;;;;;;;26.20;21.12;101273.69;6690716;26;34143;-84
2022/04/29 10:39:29;;;;;;;3.47;3.17;;;;;;;28.79;17.29;101270.66;6690948;26;34692;-85
2022/04/29 10:43:08;;;;;;;3.78;3.25;;;;;;;28.37;17.42;101269.91;6670031;26;32668;-84
2022/04/29 10:46:10;;;;;;;3.72;3.35;;;;;;;25.17;21.14;101263.97;6673920;26;33295;-84
2022/04/29 10:49:22;;;;;;;4.32;3.70;;;;;;;23.51;23.16;101280.31;6696095;26;34457;-84
2022/04/29 10:52:28;;;;;;;3.50;3.20;;;;;;;23.27;24.48;101263.44;6694386;26;34964;-85
2022/04/29 10:55:32;;;;;;;7.50;3.72;;;;;;;23.54;22.24;101261.09;6675129;26;34282;-84
2022/04/29 10:58:45;;;;;;;5.22;3.65;;;;;;;22.85;25.50;101258.16;6673130;26;33301;-85
2022/04/29 11:02:06;;;;;;;4.22;3.80;;;;;;;23.86;23.90;101250.97;6672462;26;32424;-85
2022/04/29 11:05:36;;;;;;;4.62;3.72;;;;;;;22.03;25.72;101252.50;6670988;26;33489;-91
2022/04/29 11:08:40;;;;;;;5.23;3.80;;;;;;;21.35;26.94;101249.03;6675844;26;32319;-88
2022/04/29 11:11:43;;;;;;;4.80;3.65;;;;;;;21.09;27.78;101248.44;6671078;26;32315;-87
2022/04/29 11:15:09;;;;;;;4.75;3.60;;;;;;;20.35;28.32;101247.88;6692066;26;33896;-87
2022/04/29 11:18:15;;;;;;;4.12;3.50;;;;;;;20.86;27.55;101245.75;6695838;26;34060;-88
2022/04/29 11:25:00;;;;;;;4.47;3.65;;;;;;;20.70;26.95;101236.16;6627692;26;34840;-87
2022/04/29 11:28:06;;;;;;;4.25;3.35;;;;;;;21.03;26.71;101233.63;6689523;26;33951;-86
2022/04/29 11:31:11;;;;;;;5.87;3.37;;;;;;;21.57;25.38;101224.81;6690944;26;33894;-86
2022/04/29 11:34:15;;;;;;;4.12;3.33;;;;;;;22.04;25.69;101225.38;6695205;26;34455;-86
2022/04/29 11:37:25;;;;;;;5.18;3.30;;;;;;;22.90;24.38;101223.44;6676515;26;32768;-86
2022/04/29 11:40:28;;;;;;;3.50;3.20;;;;;;;23.46;24.62;101215.78;6694366;26;35049;-86
2022/04/29 11:43:30;;;;;;;4.03;3.35;;;;;;;23.60;24.72;101209.09;6672207;26;32640;-86
2022/04/29 11:46:50;;;;;;;3.55;3.15;;;;;;;22.86;23.60;101216.59;6688696;26;33755;-86
2022/04/29 11:49:53;;;;;;;3.83;3.53;;;;;;;21.83;23.05;101198.34;6670056;26;32514;-86
2022/04/29 11:53:03;;;;;;;3.78;3.40;;;;;;;21.67;25.58;101191.50;6671015;26;32486;-86
2022/04/29 11:56:06;;;;;;;5.30;3.17;;;;;;;21.81;24.50;101197.59;6690090;26;34179;-91
2022/04/29 11:59:10;;;;;;;4.25;3.30;;;;;;;22.48;24.12;101194.62;6669869;26;32783;-91
2022/04/29 12:02:18;;;;;;;5.05;3.30;;;;;;;22.78;23.47;101190.22;6668134;26;32662;-87
2022/04/29 12:05:23;;;;;;;4.55;3.90;;;;;;;22.78;22.99;101178.56;6687622;26;33707;-87
2022/04/29 12:08:37;;;;;;;3.12;2.90;;;;;;;22.76;23.90;101178.69;6668633;26;34956;-87
2022/04/29 12:11:42;;;;;;;4.87;3.33;;;;;;;23.51;22.67;101175.59;6672721;26;32108;-88
2022/04/29 12:14:44;;;;;;;3.65;3.35;;;;;;;22.95;24.22;101166.22;6668372;26;33944;-88
2022/04/29 12:17:48;;;;;;;3.30;3.00;;;;;;;22.99;23.21;101167.66;6676083;26;33198;-88
2022/04/29 12:21:00;;;;;;;4.12;3.35;;;;;;;23.32;23.20;101165.59;6700859;26;35291;-87
2022/04/29 12:24:13;;;;;;;4.32;3.92;;;;;;;22.73;24.09;101174.41;6680135;26;32986;-87
2022/04/29 12:27:16;;;;;;;4.40;3.47;;;;;;;22.37;24.03;101157.72;6670791;26;33575;-86
2022/04/29 12:37:26;;;;;;;4.87;4.15;;;;;;;22.63;23.44;101168.13;6693878;26;34060;-86
2022/04/29 12:40:30;;;;;;;4.70;3.40;;;;;;;22.43;22.74;101156.34;6672967;26;33513;-86
2022/04/29 12:43:40;;;;;;;5.85;3.83;;;;;;;22.19;24.06;101152.09;6672527;26;32716;-87
2022/04/29 12:46:44;;;;;;;5.22;3.62;;;;;;;22.39;23.65;101142.25;6683122;26;32742;-86
2022/04/29 12:49:47;;;;;;;5.45;3.80;;;;;;;21.84;24.08;101142.47;6689432;26;34934;-88
2022/04/29 12:52:54;;;;;;;4.80;3.60;;;;;;;22.30;23.63;101141.19;6709802;26;34528;-89
2022/04/29 12:55:57;;;;;;;4.32;3.70;;;;;;;21.57;25.32;101133.88;6684761;26;33911;-91
2022/04/29 12:59:04;;;;;;;4.90;3.30;;;;;;;21.61;24.60;101127.22;6686509;26;34715;-87
2022/04/29 13:02:08;;;;;;;4.37;3.22;;;;;;;22.31;25.34;101126.69;6688988;26;32512;-86
2022/04/29 13:05:11;;;;;;;6.97;3.62;;;;;;;22.53;23.23;101124.81;6688408;26;34276;-86
2022/04/29 13:08:18;;;;;;;6.68;3.58;;;;;;;21.92;23.81;101116.53;6682461;26;35261;-86
2022/04/29 13:11:22;;;;;;;4.30;3.85;;;;;;;22.09;24.54;101111.50;6673465;26;33279;-86
2022/04/29 13:14:25;;;;;;;7.25;3.90;;;;;;;21.74;25.08;101104.63;6694037;26;33573;-86
2022/04/29 13:17:27;;;;;;;18.58;3.83;;;;;;;22.30;25.73;101116.00;6692167;26;34859;-86
2022/04/29 13:20:30;;;;;;;7.07;4.15;;;;;;;22.49;26.22;101101.72;6692026;26;33914;-86
2022/04/29 13:23:44;;;;;;;4.37;3.90;;;;;;;22.30;24.24;101108.78;6701730;26;34036;-86
2022/04/29 13:26:47;;;;;;;6.35;3.47;;;;;;;22.91;22.93;101100.72;6708324;26;33654;-85
2022/04/29 13:29:50;;;;;;;3.78;3.40;;;;;;;22.33;23.41;101099.53;6691033;26;34029;-85
2022/04/29 13:32:53;;;;;;;3.60;3.20;;;;;;;22.46;23.10;101100.16;6708027;26;35202;-85
2022/04/29 13:35:56;;;;;;;6.87;3.47;;;;;;;22.41;23.45;101096.12;6679066;26;33016;-85
2022/04/29 13:39:01;;;;;;;3.75;3.37;;;;;;;22.20;23.29;101095.22;6676143;26;33016;-84
2022/04/29 13:42:07;;;;;;;3.87;3.53;;;;;;;21.23;23.85;101094.37;6694678;26;33737;-85
2022/04/29 13:45:10;;;;;;;4.07;3.33;;;;;;;21.03;24.84;101088.00;6682517;26;32628;-84
2022/04/29 13:48:14;;;;;;;4.10;3.70;;;;;;;20.72;24.35;101095.88;6701789;26;34923;-85
2022/04/29 13:51:17;;;;;;;4.35;3.40;;;;;;;20.52;25.38;101087.56;6677112;26;32806;-84
2022/04/29 13:54:20;;;;;;;4.45;3.60;;;;;;;21.23;26.04;101082.75;6676544;26;32891;-85
2022/04/29 13:57:25;;;;;;;4.03;3.37;;;;;;;20.66;24.45;101080.22;6696065;26;34370;-85
2022/04/29 14:00:27;;;;;;;5.25;3.33;;;;;;;21.24;25.53;101079.94;6694208;26;34465;-85
2022/04/29 14:03:30;;;;;;;5.10;3.60;;;;;;;21.59;24.21;101071.66;6674300;26;32996;-84
2022/04/29 14:06:33;;;;;;;7.07;3.58;;;;;;;21.20;24.28;101069.50;6696770;26;34097;-85
2022/04/29 14:09:36;;;;;;;3.10;2.90;;;;;;;20.67;26.09;101063.87;6675483;26;32572;-86
2022/04/29 14:12:39;;;;;;;5.90;3.42;;;;;;;21.19;23.57;101065.97;6671042;26;32396;-86
2022/04/29 14:15:42;;;;;;;4.97;3.45;;;;;;;21.29;23.97;101057.97;6693209;26;34640;-85
2022/04/29 14:18:45;;;;;;;4.18;3.50;;;;;;;20.68;23.90;101062.06;6673746;26;33605;-84
2022/04/29 14:21:48;;;;;;;5.97;3.17;;;;;;;21.33;24.07;101058.56;6696229;26;33986;-84
2022/04/29 14:24:51;;;;;;;4.78;3.25;;;;;;;21.41;23.43;101051.53;6695229;26;34523;-84
2022/04/29 14:27:54;;;;;;;4.97;3.75;;;;;;;21.18;24.28;101055.31;6695503;26;34022;-84
2022/04/29 14:30:56;;;;;;;4.37;3.40;;;;;;;20.55;24.09;101046.03;6696046;26;34099;-84
2022/04/29 14:33:59;;;;;;;3.50;2.92;;;;;;;20.71;25.06;101053.69;6675468;26;32688;-84
2022/04/29 14:37:03;;;;;;;3.70;3.28;;;;;;;21.26;23.92;101048.28;6696366;26;33798;-84
2022/04/29 14:40:07;;;;;;;3.78;3.30;;;;;;;21.63;23.35;101041.56;6676130;26;33112;-84
2022/04/29 14:43:10;;;;;;;4.10;3.15;;;;;;;21.88;23.36;101044.84;6696309;26;34701;-84
2022/04/29 14:46:13;;;;;;;3.60;3.30;;;;;;;22.17;23.73;101038.75;6675057;26;33423;-84
2022/04/29 14:49:22;;;;;;;3.72;3.35;;;;;;;21.63;23.37;101040.72;6697065;26;36057;-88
2022/04/29 14:52:25;;;;;;;5.57;3.90;;;;;;;22.13;23.71;101041.84;6676139;26;32691;-88
2022/04/29 14:55:28;;;;;;;4.95;3.33;;;;;;;21.65;23.37;101036.03;6692156;26;33909;-88
2022/04/29 14:58:31;;;;;;;4.18;3.72;;;;;;;21.63;22.86;101035.31;6670908;26;33958;-88
2022/04/29 15:01:34;;;;;;;3.95;3.28;;;;;;;21.62;23.84;101034.47;6673814;26;33595;-84
2022/04/29 15:04:38;;;;;;;6.05;3.28;;;;;;;21.76;23.35;101022.50;6675472;26;33440;-84
2022/04/29 15:07:42;;;;;;;5.07;3.97;;;;;;;21.87;24.49;101032.34;6677564;26;34226;-83
2022/04/29 15:17:27;;;;;;;4.75;4.28;;;;;;;21.75;23.05;101020.78;6696268;26;34782;-84
